Time;durP1;ratioP1;P1;durP2;ratioP2;P2;SDS_P1;SDS_P2;PMS_P1;PMS_P2;Temp;Humidity;BMP_temperature;BMP_pressure;BME280_temperature;BME280_humidity;BME280_pressure;Samples;Min_cycle;Max_cycle;Signal;HPM_P1;HPM_P2
2022/01/02 00:01:02;;;;;;;1.70;1.60;;;17.40;69.90;;;;;;10385605;28;20587;-70
2022/01/02 00:06:26;;;;;;;2.07;1.70;;;17.40;69.90;;;;;;10412311;28;20214;-70
2022/01/02 00:11:51;;;;;;;2.20;1.87;;;17.40;69.90;;;;;;10449735;28;20210;-69
2022/01/02 00:17:22;;;;;;;1.63;1.43;;;17.40;69.90;;;;;;10412809;28;20204;-69
2022/01/02 00:22:49;;;;;;;2.03;1.70;;;17.40;69.90;;;;;;10414421;28;20586;-70
2022/01/02 00:28:12;;;;;;;2.00;1.70;;;17.40;69.90;;;;;;10412805;28;20296;-70
2022/01/02 00:33:37;;;;;;;2.27;1.63;;;17.40;69.90;;;;;;10421774;28;20209;-70
2022/01/02 00:38:59;;;;;;;1.70;1.60;;;17.40;69.90;;;;;;10398375;28;20222;-70
2022/01/02 00:44:32;;;;;;;2.13;1.80;;;17.40;69.90;;;;;;10370696;28;20233;-70
2022/01/02 00:50:05;;;;;;;1.67;1.50;;;17.40;69.90;;;;;;10424063;28;20209;-71
2022/01/02 00:55:30;;;;;;;1.73;1.50;;;17.40;69.80;;;;;;10453317;28;20186;-70
2022/01/02 01:00:54;;;;;;;2.10;1.90;;;17.40;69.80;;;;;;10452527;28;20751;-70
2022/01/02 01:06:22;;;;;;;1.60;1.47;;;17.40;69.80;;;;;;10418875;28;20687;-70
2022/01/02 01:11:46;;;;;;;1.63;1.50;;;17.40;69.80;;;;;;10412371;28;20611;-70
2022/01/02 01:17:10;;;;;;;1.67;1.57;;;17.40;69.90;;;;;;10410191;28;20224;-69
2022/01/02 01:22:34;;;;;;;1.90;1.40;;;17.40;69.80;;;;;;10410604;28;20696;-70
2022/01/02 01:27:59;;;;;;;2.40;1.60;;;17.40;69.80;;;;;;10411757;28;20218;-69
2022/01/02 01:33:21;;;;;;;1.80;1.50;;;17.30;69.80;;;;;;10410016;28;20198;-71
2022/01/02 01:38:44;;;;;;;1.50;1.40;;;17.30;69.80;;;;;;10410456;28;20217;-71
2022/01/02 01:44:26;;;;;;;1.40;1.30;;;17.40;69.80;;;;;;10429620;28;20200;-70
2022/01/02 01:49:48;;;;;;;1.67;1.40;;;17.30;69.80;;;;;;10449802;28;20811;-70
2022/01/02 01:55:12;;;;;;;1.73;1.30;;;17.30;69.80;;;;;;10450922;28;20204;-70
2022/01/02 02:00:35;;;;;;;1.53;1.40;;;17.30;69.70;;;;;;10416808;28;20226;-71
2022/01/02 02:05:57;;;;;;;1.30;1.20;;;17.30;69.80;;;;;;10444765;22;20235;-69
2022/01/02 02:11:23;;;;;;;3.57;2.10;;;17.30;69.70;;;;;;10449645;28;20576;-69
2022/01/02 02:16:46;;;;;;;1.40;1.30;;;17.30;69.80;;;;;;10432593;28;20623;-69
2022/01/02 02:22:09;;;;;;;2.17;1.63;;;17.30;69.80;;;;;;10419164;28;20206;-70
2022/01/02 02:27:31;;;;;;;1.30;1.20;;;17.30;69.80;;;;;;10445379;28;20236;-69
2022/01/02 02:32:55;;;;;;;1.63;1.30;;;17.30;69.70;;;;;;10463101;28;20616;-69
2022/01/02 02:38:19;;;;;;;1.53;1.40;;;17.30;69.80;;;;;;10450935;28;20596;-69
2022/01/02 02:43:48;;;;;;;1.43;1.30;;;17.40;69.80;;;;;;10452207;28;20198;-69
2022/01/02 02:49:10;;;;;;;1.60;1.50;;;17.30;69.70;;;;;;10458813;28;20226;-69
2022/01/02 02:54:35;;;;;;;1.70;1.40;;;17.30;69.70;;;;;;10482655;28;20849;-69
2022/01/02 02:59:57;;;;;;;1.37;1.27;;;17.30;69.80;;;;;;10497296;28;20204;-69
2022/01/02 03:05:19;;;;;;;1.40;1.30;;;17.30;69.70;;;;;;10499096;28;20227;-70
2022/01/02 03:10:43;;;;;;;1.67;1.50;;;17.30;69.70;;;;;;10497192;28;20198;-70
2022/01/02 03:16:05;;;;;;;1.80;1.20;;;17.30;69.70;;;;;;10457272;28;20220;-69
2022/01/02 03:21:28;;;;;;;1.53;1.43;;;17.30;69.70;;;;;;10471255;28;20215;-70
2022/01/02 03:26:51;;;;;;;2.13;1.40;;;17.30;69.70;;;;;;10496167;28;20226;-69
2022/01/02 03:32:13;;;;;;;1.47;1.20;;;17.30;69.70;;;;;;10497805;28;20223;-69
2022/01/02 03:37:35;;;;;;;1.40;1.30;;;17.30;69.80;;;;;;10498451;28;20622;-69
2022/01/02 03:42:59;;;;;;;1.00;0.90;;;17.30;69.70;;;;;;10457338;28;20212;-70
2022/01/02 03:48:21;;;;;;;1.13;1.03;;;17.30;69.70;;;;;;10456428;28;20734;-69
2022/01/02 03:53:43;;;;;;;1.30;1.20;;;17.30;69.80;;;;;;10456923;28;20205;-69
2022/01/02 03:59:06;;;;;;;1.67;1.20;;;17.30;70.30;;;;;;10456059;28;20220;-70
2022/01/02 04:04:29;;;;;;;1.37;1.23;;;17.30;69.70;;;;;;10454056;28;20201;-69
2022/01/02 04:09:51;;;;;;;1.60;1.10;;;17.30;69.70;;;;;;10455845;28;20335;-69
2022/01/02 04:15:15;;;;;;;1.10;1.00;;;17.30;69.70;;;;;;10454091;28;20215;-69
2022/01/02 04:20:38;;;;;;;1.43;1.20;;;17.30;69.70;;;;;;10455519;28;20200;-69
2022/01/02 04:26:00;;;;;;;1.23;1.00;;;17.30;69.70;;;;;;10455405;28;20610;-69
2022/01/02 04:31:23;;;;;;;1.00;1.00;;;17.30;69.70;;;;;;10454424;28;20212;-69
2022/01/02 04:36:45;;;;;;;1.10;1.00;;;17.30;69.70;;;;;;10456001;28;20205;-69
2022/01/02 04:42:08;;;;;;;1.10;1.00;;;17.30;69.70;;;;;;10453136;28;20687;-69
2022/01/02 04:47:32;;;;;;;1.20;1.10;;;17.30;69.70;;;;;;10454179;28;20224;-69
2022/01/02 04:52:54;;;;;;;1.63;1.10;;;17.30;69.70;;;;;;10453444;28;20216;-68
2022/01/02 04:58:16;;;;;;;1.10;1.10;;;17.30;69.70;;;;;;10454064;28;20220;-68
2022/01/02 05:03:40;;;;;;;0.90;0.90;;;17.30;69.70;;;;;;10453351;28;20584;-72
2022/01/02 05:09:02;;;;;;;1.80;1.23;;;17.30;69.70;;;;;;10489240;28;20215;-70
2022/01/02 05:14:24;;;;;;;1.00;0.90;;;17.30;69.70;;;;;;10490785;28;20273;-70
2022/01/02 05:19:48;;;;;;;1.30;1.20;;;17.20;69.60;;;;;;10492306;28;20200;-67
2022/01/02 05:25:10;;;;;;;1.33;1.17;;;17.30;69.70;;;;;;10492328;28;20208;-68
2022/01/02 05:30:32;;;;;;;1.27;1.17;;;17.20;69.60;;;;;;10475248;28;20197;-68
2022/01/02 05:35:56;;;;;;;1.20;1.10;;;17.30;69.70;;;;;;10452932;28;20212;-68
2022/01/02 05:41:18;;;;;;;1.40;1.20;;;17.20;69.60;;;;;;10460861;28;20211;-68
2022/01/02 05:46:40;;;;;;;1.10;1.00;;;17.30;69.70;;;;;;10461649;28;20249;-68
2022/01/02 05:52:04;;;;;;;1.20;1.10;;;17.20;69.60;;;;;;10451366;28;20695;-68
2022/01/02 05:57:26;;;;;;;1.13;0.90;;;17.20;69.60;;;;;;10472847;28;20209;-68
2022/01/02 06:02:48;;;;;;;0.97;0.80;;;17.30;69.70;;;;;;10451336;28;20201;-67
2022/01/02 06:08:12;;;;;;;1.20;1.00;;;17.20;69.60;;;;;;10451610;28;20224;-68
2022/01/02 06:13:34;;;;;;;1.07;0.97;;;17.30;69.70;;;;;;10473878;28;20204;-68
2022/01/02 06:18:57;;;;;;;1.20;1.10;;;17.30;69.60;;;;;;10467253;28;20212;-68
2022/01/02 06:24:21;;;;;;;0.83;0.70;;;17.30;69.60;;;;;;10491174;28;20242;-68
2022/01/02 06:29:43;;;;;;;1.63;1.30;;;17.30;69.60;;;;;;10479554;28;20224;-68
2022/01/02 06:35:05;;;;;;;1.00;0.80;;;17.30;69.50;;;;;;10448383;28;20264;-68
2022/01/02 06:40:29;;;;;;;0.93;0.87;;;17.30;69.60;;;;;;10457716;28;20193;-68
2022/01/02 06:45:51;;;;;;;0.97;0.70;;;17.30;69.50;;;;;;10451297;28;20217;-68
2022/01/02 06:51:13;;;;;;;1.60;0.90;;;17.30;69.50;;;;;;10450806;28;20228;-68
2022/01/02 06:56:36;;;;;;;1.10;0.97;;;17.30;70.10;;;;;;10490783;28;20679;-68
2022/01/02 07:01:58;;;;;;;0.70;0.70;;;17.30;69.50;;;;;;10496740;28;20204;-68
2022/01/02 07:07:21;;;;;;;1.10;1.00;;;17.30;69.50;;;;;;10499252;28;20216;-68
2022/01/02 07:12:44;;;;;;;1.10;1.00;;;17.30;69.50;;;;;;10485960;28;20193;-68
2022/01/02 07:18:06;;;;;;;0.87;0.87;;;17.30;69.50;;;;;;10456866;28;20221;-68
2022/01/02 07:23:28;;;;;;;1.33;1.10;;;17.30;69.40;;;;;;10457228;28;20232;-68
2022/01/02 07:28:52;;;;;;;1.27;0.90;;;17.30;69.50;;;;;;10455095;28;20220;-67
2022/01/02 07:34:14;;;;;;;0.97;0.70;;;17.30;69.50;;;;;;10455130;28;20270;-67
2022/01/02 07:39:36;;;;;;;1.93;0.90;;;17.30;69.50;;;;;;10460961;28;20190;-67
2022/01/02 07:45:00;;;;;;;0.70;0.70;;;17.40;69.50;;;;;;10455727;28;20225;-67
2022/01/02 07:50:22;;;;;;;2.03;0.90;;;17.40;69.40;;;;;;10460015;28;20207;-68
2022/01/02 07:55:44;;;;;;;1.43;0.80;;;17.40;69.40;;;;;;10456671;28;20220;-68
2022/01/02 08:01:08;;;;;;;0.97;0.90;;;17.40;69.40;;;;;;10458614;28;20663;-68
2022/01/02 08:06:31;;;;;;;1.13;0.80;;;17.40;69.40;;;;;;10445946;22;20228;-71
2022/01/02 08:11:53;;;;;;;1.20;0.80;;;17.40;69.40;;;;;;10428476;28;20193;-72
2022/01/02 08:17:16;;;;;;;0.83;0.63;;;17.40;69.40;;;;;;10418349;28;20223;-71
2022/01/02 08:22:38;;;;;;;1.03;0.67;;;17.40;69.40;;;;;;10379233;28;20197;-72
2022/01/02 08:28:00;;;;;;;1.17;0.83;;;17.40;69.40;;;;;;10387239;28;20218;-71
2022/01/02 08:33:24;;;;;;;0.67;0.67;;;17.40;69.40;;;;;;10365215;28;20225;-72
2022/01/02 08:38:47;;;;;;;1.00;0.90;;;17.40;69.40;;;;;;10402601;28;20218;-71
2022/01/02 08:44:09;;;;;;;0.93;0.83;;;17.30;69.40;;;;;;10390436;28;20252;-71
2022/01/02 08:49:33;;;;;;;1.10;1.00;;;17.30;69.40;;;;;;10381946;28;20744;-71
2022/01/02 08:54:55;;;;;;;1.03;0.93;;;17.30;69.90;;;;;;10394584;28;20208;-71
2022/01/02 09:00:17;;;;;;;1.10;0.80;;;17.40;69.40;;;;;;10394140;28;20712;-71
2022/01/02 09:05:41;;;;;;;1.33;1.17;;;17.40;69.40;;;;;;10377723;28;20798;-71
2022/01/02 09:11:04;;;;;;;0.97;0.70;;;17.40;69.40;;;;;;10384646;28;20347;-71
2022/01/02 09:16:26;;;;;;;0.80;0.80;;;17.40;69.40;;;;;;10376492;28;20221;-71
2022/01/02 09:21:49;;;;;;;1.23;0.97;;;17.40;69.40;;;;;;10388954;28;20201;-71
2022/01/02 09:27:11;;;;;;;1.40;0.80;;;17.30;69.40;;;;;;10385993;28;20226;-72
2022/01/02 09:32:34;;;;;;;1.00;0.90;;;17.40;69.40;;;;;;10395482;28;20228;-71
2022/01/02 09:37:57;;;;;;;1.00;0.87;;;17.40;69.40;;;;;;10375014;28;20222;-73
2022/01/02 09:43:20;;;;;;;0.97;0.83;;;17.30;69.40;;;;;;10362819;28;20573;-72
2022/01/02 09:48:45;;;;;;;1.17;0.90;;;17.40;69.40;;;;;;10389870;28;20265;-70
2022/01/02 09:54:10;;;;;;;0.60;0.60;;;17.40;69.40;;;;;;10372271;28;20213;-70
2022/01/02 09:59:32;;;;;;;1.33;1.00;;;17.40;69.20;;;;;;10388832;28;20375;-72
2022/01/02 10:05:03;;;;;;;7.72;1.63;;;17.40;70.80;;;;;;10365631;28;20803;-73
2022/01/02 10:10:35;;;;;;;3.13;1.30;;;18.00;71.60;;;;;;10365248;28;20219;-75
2022/01/02 10:15:57;;;;;;;3.17;1.07;;;17.70;72.80;;;;;;10371159;28;20585;-76
2022/01/02 10:21:33;;;;;;;1.87;0.90;;;17.60;72.00;;;;;;10378451;28;20203;-74
2022/01/02 10:27:12;;;;;;;1.23;0.90;;;17.50;71.20;;;;;;10387588;28;20218;-73
2022/01/02 10:32:36;;;;;;;3.50;0.90;;;17.50;71.60;;;;;;10370511;28;20213;-76
2022/01/02 10:38:00;;;;;;;4.17;1.00;;;17.50;71.50;;;;;;10388394;28;20226;-71
2022/01/02 10:43:29;;;;;;;1.70;0.80;;;17.50;71.90;;;;;;10411550;28;20284;-72
2022/01/02 10:48:54;;;;;;;8.33;4.23;;;17.60;72.00;;;;;;10378442;28;20219;-73
2022/01/02 10:54:16;;;;;;;114.50;46.57;;;17.60;72.00;;;;;;10372973;28;20201;-72
2022/01/02 10:59:41;;;;;;;49.47;21.40;;;17.60;72.00;;;;;;10388611;28;20213;-76
2022/01/02 11:05:06;;;;;;;26.13;12.37;;;17.60;71.90;;;;;;10370681;28;20222;-72
2022/01/02 11:10:31;;;;;;;26.47;9.37;;;17.50;71.70;;;;;;10363790;28;20720;-74
2022/01/02 11:15:55;;;;;;;17.53;7.70;;;17.50;71.60;;;;;;10379162;28;20214;-73
2022/01/02 11:21:20;;;;;;;19.67;9.33;;;17.50;71.60;;;;;;10388339;28;20201;-73
2022/01/02 11:26:49;;;;;;;16.27;7.70;;;17.50;71.50;;;;;;10378610;28;20226;-73
2022/01/02 11:32:23;;;;;;;18.10;7.73;;;17.50;71.50;;;;;;10377897;28;20183;-68
2022/01/02 11:37:53;;;;;;;18.33;8.07;;;17.50;71.30;;;;;;10387477;28;20293;-68
2022/01/02 11:43:53;;;;;;;14.90;7.10;;;17.50;71.20;;;;;;10395451;28;20344;-69
2022/01/02 11:49:20;;;;;;;15.93;6.83;;;17.60;71.00;;;;;;10375459;28;20218;-71
2022/01/02 11:54:50;;;;;;;16.27;6.27;;;17.50;71.20;;;;;;10380885;28;20210;-70
2022/01/02 12:00:32;;;;;;;13.97;6.17;;;17.60;71.10;;;;;;10364609;28;20195;-69
2022/01/02 12:06:24;;;;;;;9.07;5.13;;;17.60;71.00;;;;;;10367685;28;20237;-69
2022/01/02 12:11:49;;;;;;;9.30;5.10;;;17.60;70.80;;;;;;10371249;28;20285;-69
2022/01/02 12:17:13;;;;;;;10.33;5.00;;;17.50;71.00;;;;;;10370132;28;20209;-70
2022/01/02 12:22:45;;;;;;;10.10;4.70;;;17.60;71.00;;;;;;10378753;28;20190;-69
2022/01/02 12:28:07;;;;;;;16.97;4.70;;;17.60;70.90;;;;;;10391226;28;20746;-69
2022/01/02 12:33:31;;;;;;;9.10;4.90;;;17.60;71.00;;;;;;10388703;28;20186;-69
2022/01/02 12:38:56;;;;;;;8.10;3.60;;;17.60;71.00;;;;;;10384586;28;20210;-68
2022/01/02 12:44:26;;;;;;;8.30;4.20;;;17.60;71.00;;;;;;10356975;28;20204;-68
2022/01/02 12:49:48;;;;;;;9.93;4.30;;;17.60;70.90;;;;;;10382612;28;20214;-69
2022/01/02 12:55:11;;;;;;;7.63;3.73;;;17.60;71.00;;;;;;10371469;28;20574;-70
2022/01/02 13:00:33;;;;;;;6.13;3.27;;;17.60;71.00;;;;;;10368740;28;20202;-68
2022/01/02 13:05:56;;;;;;;5.57;3.20;;;17.60;71.00;;;;;;10372948;28;20589;-69
2022/01/02 13:11:19;;;;;;;7.00;2.93;;;17.60;71.00;;;;;;10360861;28;20227;-69
2022/01/02 13:16:41;;;;;;;4.90;3.13;;;17.60;71.00;;;;;;10377384;28;20214;-70
2022/01/02 13:22:04;;;;;;;6.57;3.50;;;17.60;71.00;;;;;;10392317;28;20831;-69
2022/01/02 13:27:28;;;;;;;6.80;3.13;;;17.70;70.40;;;;;;10370975;28;20226;-69
2022/01/02 13:32:51;;;;;;;4.63;2.77;;;17.70;70.60;;;;;;10379651;28;20189;-69
2022/01/02 13:38:14;;;;;;;6.43;2.87;;;17.60;70.70;;;;;;10369988;28;20217;-68
2022/01/02 13:43:37;;;;;;;5.47;2.83;;;17.60;70.90;;;;;;10371874;28;20201;-69
2022/01/02 13:48:59;;;;;;;5.13;2.70;;;17.60;70.80;;;;;;10382363;28;20753;-70
2022/01/02 13:54:27;;;;;;;4.83;2.77;;;17.60;70.90;;;;;;10354904;28;20225;-70
2022/01/02 13:59:51;;;;;;;6.17;2.43;;;17.60;70.90;;;;;;10384018;28;20221;-70
2022/01/02 14:05:13;;;;;;;5.33;2.30;;;17.60;70.90;;;;;;10368736;28;20206;-69
2022/01/02 14:10:35;;;;;;;4.07;2.13;;;17.60;70.90;;;;;;10388896;28;20217;-69
2022/01/02 14:16:03;;;;;;;4.60;2.30;;;17.60;70.80;;;;;;10394660;28;20214;-70
2022/01/02 14:21:25;;;;;;;5.03;2.70;;;17.60;70.80;;;;;;10382765;28;20193;-70
2022/01/02 14:26:49;;;;;;;4.77;2.83;;;17.60;70.90;;;;;;10383131;28;20221;-69
2022/01/02 14:32:13;;;;;;;4.57;2.50;;;17.60;70.90;;;;;;10396653;28;20272;-70
2022/01/02 14:37:36;;;;;;;5.60;2.20;;;17.60;70.90;;;;;;10374329;28;20237;-71
2022/01/02 14:42:58;;;;;;;3.63;1.80;;;17.60;70.90;;;;;;10381066;28;20206;-70
2022/01/02 14:48:23;;;;;;;3.03;1.97;;;17.60;70.70;;;;;;10380533;28;20260;-71
2022/01/02 14:53:45;;;;;;;4.53;2.27;;;17.60;70.60;;;;;;10383987;28;20197;-71
2022/01/02 14:59:08;;;;;;;3.23;1.97;;;17.70;70.70;;;;;;10387227;28;20701;-71
2022/01/02 15:04:32;;;;;;;3.40;2.22;;;17.70;71.40;;;;;;10380037;28;20419;-70
2022/01/02 15:09:54;;;;;;;2.30;1.90;;;18.70;67.30;;;;;;10375168;28;20222;-70
2022/01/02 15:15:17;;;;;;;3.03;1.90;;;18.10;69.40;;;;;;10399688;28;20225;-70
2022/01/02 15:20:40;;;;;;;2.67;1.83;;;17.90;70.30;;;;;;10384744;28;20213;-70
2022/01/02 15:26:04;;;;;;;2.50;1.50;;;17.80;70.60;;;;;;10388071;28;20225;-70
2022/01/02 15:31:26;;;;;;;9.10;2.28;;;17.80;70.70;;;;;;10395194;28;20442;-71
2022/01/02 15:36:50;;;;;;;5.00;1.83;;;18.60;68.00;;;;;;10383284;28;20563;-70
2022/01/02 15:42:12;;;;;;;4.43;1.80;;;18.10;69.50;;;;;;10383681;28;20573;-70
2022/01/02 15:47:35;;;;;;;3.87;1.50;;;18.00;70.40;;;;;;10381651;28;20225;-70
2022/01/02 15:52:59;;;;;;;2.43;1.80;;;17.90;70.70;;;;;;10382247;28;20195;-69
2022/01/02 15:58:21;;;;;;;2.53;1.87;;;17.80;70.70;;;;;;10378762;28;20348;-70
2022/01/02 16:03:43;;;;;;;6.67;1.60;;;17.80;71.00;;;;;;10373762;28;20195;-70
2022/01/02 16:09:07;;;;;;;2.70;1.60;;;17.80;71.00;;;;;;10374129;28;20570;-70
2022/01/02 16:14:29;;;;;;;3.70;1.60;;;17.80;71.10;;;;;;10392282;28;20205;-69
2022/01/02 16:19:51;;;;;;;1.87;1.40;;;17.70;71.00;;;;;;10371353;28;20221;-70
2022/01/02 16:25:15;;;;;;;2.43;1.50;;;17.70;71.00;;;;;;10373370;28;20210;-69
2022/01/02 16:30:38;;;;;;;2.67;1.70;;;17.70;71.00;;;;;;10369619;28;20700;-70
2022/01/02 16:36:01;;;;;;;1.53;1.10;;;17.70;71.00;;;;;;10376774;28;20225;-70
2022/01/02 16:41:25;;;;;;;3.37;1.50;;;17.70;71.00;;;;;;10394013;28;20186;-70
2022/01/02 16:46:48;;;;;;;2.72;1.45;;;17.70;71.00;;;;;;10369819;28;20558;-70
2022/01/02 16:52:10;;;;;;;3.40;1.43;;;18.50;68.00;;;;;;10334335;28;20658;-70
2022/01/02 16:57:33;;;;;;;3.27;1.50;;;18.00;69.80;;;;;;10376756;28;20217;-70
2022/01/02 17:02:58;;;;;;;2.63;1.40;;;17.90;70.50;;;;;;10389914;28;20202;-69
2022/01/02 17:08:20;;;;;;;1.23;1.13;;;17.80;71.40;;;;;;10365277;28;20889;-69
2022/01/02 17:13:49;;;;;;;2.43;1.30;;;17.70;70.90;;;;;;10375319;28;20211;-69
2022/01/02 17:19:11;;;;;;;2.83;1.33;;;17.70;70.90;;;;;;10370214;28;20215;-69
2022/01/02 17:24:34;;;;;;;2.40;1.37;;;17.70;71.00;;;;;;10369968;28;20201;-69
2022/01/02 17:29:58;;;;;;;1.33;1.00;;;17.70;71.00;;;;;;10370316;28;20601;-69
2022/01/02 17:35:21;;;;;;;5.80;1.67;;;17.70;71.00;;;;;;10370320;28;20689;-70
2022/01/02 17:40:44;;;;;;;2.10;1.10;;;17.70;71.00;;;;;;10376195;28;20669;-70
2022/01/02 17:46:07;;;;;;;2.30;1.37;;;17.70;71.10;;;;;;10370752;28;20804;-70
2022/01/02 17:51:30;;;;;;;2.17;1.50;;;17.70;71.00;;;;;;10369390;28;20229;-70
2022/01/02 17:56:52;;;;;;;1.50;1.10;;;17.70;71.00;;;;;;10369637;28;20685;-70
2022/01/02 18:02:16;;;;;;;2.53;1.30;;;17.70;71.00;;;;;;10376213;28;20205;-70
2022/01/02 18:07:38;;;;;;;1.47;1.10;;;17.70;71.00;;;;;;10366767;28;20226;-70
2022/01/02 18:13:01;;;;;;;1.67;1.20;;;17.60;70.90;;;;;;10377962;28;20198;-70
2022/01/02 18:18:25;;;;;;;1.90;1.27;;;17.70;71.00;;;;;;10368613;28;20711;-70
2022/01/02 18:23:48;;;;;;;2.07;1.30;;;17.60;70.90;;;;;;10376121;28;20198;-70
2022/01/02 18:29:12;;;;;;;1.93;1.10;;;17.60;70.90;;;;;;10387347;28;20218;-70
2022/01/02 18:34:35;;;;;;;1.70;1.20;;;17.70;70.90;;;;;;10368551;28;20205;-70
2022/01/02 18:39:57;;;;;;;1.87;0.90;;;17.60;71.40;;;;;;10369026;28;20585;-69
2022/01/02 18:45:19;;;;;;;1.23;1.13;;;17.60;70.90;;;;;;10368022;28;20238;-70
2022/01/02 18:50:43;;;;;;;2.00;1.10;;;17.60;70.80;;;;;;10368221;28;20210;-70
2022/01/02 18:56:05;;;;;;;1.53;1.30;;;17.60;70.80;;;;;;10372276;28;20225;-70
2022/01/02 19:01:30;;;;;;;1.90;1.17;;;17.60;70.80;;;;;;10375588;28;20198;-70
2022/01/02 19:06:54;;;;;;;1.60;1.20;;;17.60;70.80;;;;;;10372042;28;20719;-72
2022/01/02 19:12:18;;;;;;;1.80;1.10;;;17.60;70.80;;;;;;10383737;28;20217;-70
2022/01/02 19:17:40;;;;;;;2.43;1.20;;;17.60;70.70;;;;;;10387793;28;20300;-70
2022/01/02 19:23:04;;;;;;;2.30;1.20;;;17.60;70.70;;;;;;10401832;28;20201;-70
2022/01/02 19:28:27;;;;;;;2.93;0.90;;;17.60;70.70;;;;;;10377011;28;20612;-70
2022/01/02 19:33:50;;;;;;;1.50;1.03;;;17.60;70.70;;;;;;10380210;28;20214;-70
2022/01/02 19:39:13;;;;;;;1.00;0.90;;;17.60;70.70;;;;;;10406615;28;20296;-70
2022/01/02 19:44:36;;;;;;;2.17;1.10;;;17.70;70.70;;;;;;10328893;28;20210;-70
2022/01/02 19:49:58;;;;;;;2.10;1.20;;;17.60;70.70;;;;;;10336742;28;20230;-68
2022/01/02 19:55:23;;;;;;;1.80;1.20;;;17.60;71.20;;;;;;10380110;28;20233;-70
2022/01/02 20:00:45;;;;;;;1.70;1.00;;;17.60;70.70;;;;;;10371792;28;20202;-70
2022/01/02 20:06:07;;;;;;;1.57;1.10;;;17.60;70.60;;;;;;10375812;28;20231;-70
2022/01/02 20:11:31;;;;;;;1.27;0.97;;;17.60;70.50;;;;;;10374923;28;20230;-70
2022/01/02 20:16:53;;;;;;;1.73;1.30;;;17.70;70.60;;;;;;10360956;28;20865;-69
2022/01/02 20:22:15;;;;;;;1.93;1.27;;;17.70;70.50;;;;;;10379684;28;20224;-70
2022/01/02 20:27:39;;;;;;;1.57;1.30;;;17.70;70.60;;;;;;10372208;28;20226;-70
2022/01/02 20:33:01;;;;;;;1.70;1.20;;;17.70;70.60;;;;;;10385557;28;20206;-69
2022/01/02 20:38:24;;;;;;;1.60;1.13;;;17.70;70.60;;;;;;10376880;28;20221;-69
2022/01/02 20:43:47;;;;;;;1.93;1.27;;;17.70;70.50;;;;;;10403853;28;20563;-70
2022/01/02 20:49:09;;;;;;;2.40;1.20;;;17.70;70.60;;;;;;10389099;28;20225;-69
2022/01/02 20:54:34;;;;;;;1.40;1.10;;;17.70;70.60;;;;;;10374380;28;20213;-70
2022/01/02 20:59:57;;;;;;;1.93;1.37;;;17.80;70.60;;;;;;10403360;28;20235;-71
2022/01/02 21:05:20;;;;;;;1.97;1.17;;;17.70;70.60;;;;;;10379108;28;20222;-70
2022/01/02 21:10:43;;;;;;;1.70;1.13;;;17.70;70.60;;;;;;10361161;28;20213;-70
2022/01/02 21:16:06;;;;;;;1.43;1.00;;;17.70;70.70;;;;;;10371500;28;20340;-69
2022/01/02 21:21:29;;;;;;;1.53;0.87;;;17.70;70.70;;;;;;10368191;28;20198;-70
2022/01/02 21:26:51;;;;;;;1.30;1.07;;;17.70;70.70;;;;;;10365453;28;20237;-69
2022/01/02 21:32:14;;;;;;;2.20;1.03;;;17.70;70.70;;;;;;10364705;28;20214;-70
2022/01/02 21:37:37;;;;;;;1.87;1.20;;;17.70;70.70;;;;;;10364802;28;20736;-70
2022/01/02 21:42:59;;;;;;;0.90;0.80;;;17.70;70.70;;;;;;10362743;28;20637;-70
2022/01/02 21:48:22;;;;;;;1.70;0.90;;;17.70;70.80;;;;;;10365008;28;20215;-69
2022/01/02 21:53:44;;;;;;;1.40;0.80;;;17.70;70.70;;;;;;10364524;28;20201;-70
2022/01/02 21:59:07;;;;;;;1.63;0.90;;;17.70;70.80;;;;;;10364089;28;20605;-70
2022/01/02 22:04:32;;;;;;;1.00;0.80;;;17.70;70.80;;;;;;10366100;28;20206;-70
2022/01/02 22:09:55;;;;;;;2.00;1.30;;;17.60;70.70;;;;;;10363745;28;20574;-70
2022/01/02 22:15:17;;;;;;;1.27;0.93;;;17.60;70.80;;;;;;10365433;28;20202;-70
2022/01/02 22:20:44;;;;;;;2.07;1.30;;;17.60;70.80;;;;;;10359541;28;20561;-71
2022/01/02 22:26:06;;;;;;;2.07;1.07;;;17.60;70.80;;;;;;10370017;28;20224;-70
2022/01/02 22:31:29;;;;;;;1.37;0.80;;;17.60;70.80;;;;;;10414293;22;20590;-67
2022/01/02 22:36:53;;;;;;;2.83;1.13;;;17.60;70.80;;;;;;10416950;28;20268;-66
2022/01/02 22:42:15;;;;;;;2.13;1.10;;;17.60;70.90;;;;;;10415125;28;20675;-67
2022/01/02 22:47:38;;;;;;;1.53;0.80;;;17.60;70.80;;;;;;10415315;28;20659;-66
2022/01/02 22:53:02;;;;;;;1.20;0.90;;;17.50;70.80;;;;;;10414334;28;20221;-66
2022/01/02 22:58:26;;;;;;;1.87;0.90;;;17.50;70.80;;;;;;10417023;28;20225;-66
2022/01/02 23:03:48;;;;;;;0.90;0.80;;;17.50;70.80;;;;;;10415524;28;20197;-66
2022/01/02 23:09:12;;;;;;;2.13;0.90;;;17.50;70.80;;;;;;10418409;28;20252;-66
2022/01/02 23:14:35;;;;;;;2.13;1.10;;;17.50;70.80;;;;;;10414471;28;20210;-66
2022/01/02 23:20:10;;;;;;;2.00;0.97;;;17.50;70.70;;;;;;10414428;28;20213;-65
2022/01/02 23:25:36;;;;;;;1.80;1.00;;;17.50;70.50;;;;;;10413800;28;20205;-65
2022/01/02 23:30:59;;;;;;;1.40;0.80;;;17.50;70.70;;;;;;10414296;28;20214;-66
2022/01/02 23:36:21;;;;;;;2.13;1.10;;;17.50;70.70;;;;;;10414564;28;20198;-65
2022/01/02 23:41:46;;;;;;;1.70;0.97;;;17.50;70.70;;;;;;10413297;28;20840;-65
2022/01/02 23:47:12;;;;;;;1.43;0.80;;;17.50;70.70;;;;;;10411886;28;20671;-66
2022/01/02 23:52:46;;;;;;;1.23;0.90;;;17.50;70.70;;;;;;10410727;28;20217;-66
2022/01/02 23:58:12;;;;;;;1.43;0.90;;;17.50;70.70;;;;;;10413520;28;20217;-65
